LFSB Airport Information

Runway Information
Runway 08 Length 5969 ft width 197 ft
Elevation 881 ft Threshold 0 ft Heading 77
Runway 26 Length 5969 ft Width 197 ft
Elevation 884 ft Threshold 722 ft Heading 257
Runway 15 Length 12795 ft width 197 ft
Elevation 865 ft Threshold 0 ft Heading 155
Runway 33 Length 12795 ft Width 197 ft
Elevation 882 ft Threshold 0 ft Heading 335
Airport Frequencies
Type A/D Name APP Frequency 118.575 MHZ
Type ATIS Name ATIS Frequency 127.875 MHZ
Type GND Name GND Frequency 121.6 MHZ
Type INFO Name INFO Frequency 121.25 MHZ
Type PFLT Name PREFLIGHT Frequency 120.5 MHZ
Type TWR Name TWR Frequency 118.3 MHZ
Airport Navaids
Type VOR-DME Name Bale Mulhouse Frequency 117450 KHZ
Type NDB Name Bale Mulhouse Frequency 353 KHZ
Airport Weather Information & NOTAM
ADDS - METARS form results

(2133 UTC 17 December 2017)
 
METAR text: LFSB 172100Z 23005KT 9999 BKN046 BKN200 00/M02 Q1028 NOSIG
Conditions at: LFSB (BALE/MULHOUSE , FR) observed 2100 UTC 17 December 2017
Temperature: 0.0°C (32°F)
Dewpoint: -2.0°C (28°F) [RH = 86%]
Pressure (altimeter): 30.35 inches Hg (1028.0 mb)
Winds: from the SW (230 degrees) at 6 MPH (5 knots; 2.6 m/s)
Visibility: 6 or more miles (10+ km)
Ceiling: 4600 feet AGL
Clouds: broken clouds at 4600 feet AGL
broken clouds at 20000 feet AGL
Weather: no significant weather observed at this time